Bob Hope Airport
KBUR : rendu visible

Aérodrome :











RETROUVEZ-NOUS SUR...

 
LOGIN :

S'inscrire | Disclaimer

   EN    FR    IT 

 









Légende :    VFR   VFR Marginal   IFR   IFR Intensif   IFR Très Intensif
Visi : 
Plafond : 
>= 8 km
>= 3000ft
5 à 8 km
1000 à 3000 ft
1500m à 5 km
500 à 1000 ft
800 à 1500m
200 à 500 ft
< 800m
< 200 ft
Symboles :   Orages  Brouillard  Fortes neiges  Fortes précipitations  Vent > 20 kt






- Altitude de l'aérodrome : 778 ft
- Code IATA : BUR


KBUR - Bob Hope

DERNIER METAR :
  • 201053Z 15009KT 10SM BKN017 OVC028 14/09 A2950 RMK AO2 SLP978 T01390094 $

METARs EXPIRÉS :
  • 200953Z 16007KT 10SM OVC026 14/09 A2952 RMK AO2 SLP985 T01440089 $
  • 200932Z 16009KT 10SM BKN023 OVC029 15/09 A2951 RMK AO2 T01500094
  • 200922Z 16008KT 10SM SCT021 OVC030 15/09 A2951 RMK AO2 T01500094
  • 200853Z 18008KT 10SM FEW012 BKN028 OVC037 15/12 A2951 RMK AO2 SLP981 T01500117 56016

TAF KBUR
Valide du 20 à 12h jusqu'au 21 à 12h UTC


201121Z 2012/2112 16008KT P6SM VCSH BKN015 OVC025
FM201400 16012KT 5SM -SHRA BR SCT015 OVC025
FM202100 17010KT 6SM -SHRA BR BKN025 OVC050
FM210300 VRB03KT P6SM VCSH BKN035 BKN150



MET'MAP, la Météo Aéronautique d'un coup d'oeil ! - Copyright ORBIFLY Décembre 2007 - Disclaimer

ORBIFLY MET'MAP TEAM :

Programmation & Développement : Alexandra Zaïnal
Conception & Développement : Baudouin d'Aumeries
Co-Programmation & Développement : Marc-Olivier Méhu
Soutien technique & logistique : Manuel Goepfert

Contact : metmap@orbifly.com




SOURCES & CREDITS :

   NOAA       Earth
Advisory